createdAt,value
2023-04-01T00:01:06.874Z,99143.50
2023-04-01T00:03:34.771Z,99140.50
2023-04-01T00:06:02.164Z,99138.91
2023-04-01T00:08:29.555Z,99144.31
2023-04-01T00:10:57.908Z,99144.31
2023-04-01T00:13:27.170Z,99142.69
2023-04-01T00:15:54.964Z,99142.69
2023-04-01T00:18:23.326Z,99148.06
2023-04-01T00:20:51.841Z,99155.88
2023-04-01T00:23:19.236Z,99147.25
2023-04-01T00:25:47.756Z,99158.88
2023-04-01T00:28:16.851Z,99152.66
2023-04-01T00:30:43.288Z,99153.47
2023-04-01T00:33:10.063Z,99158.88
2023-04-01T00:35:36.641Z,99158.38
2023-04-01T00:38:04.111Z,99159.44
2023-04-01T00:40:30.588Z,99152.41
2023-04-01T00:42:57.493Z,99163.22
2023-04-01T00:45:31.294Z,99152.69
2023-04-01T00:48:02.454Z,99153.78
2023-04-01T00:50:30.736Z,99157.56
2023-04-01T00:52:58.283Z,99161.34
2023-04-01T00:55:28.309Z,99167.56
2023-04-01T00:57:58.007Z,99162.16
2023-04-01T01:00:24.591Z,99162.16
2023-04-01T01:02:52.139Z,99172.97
2023-04-01T01:05:24.090Z,99177.56
2023-04-01T01:08:07.340Z,99172.41
2023-04-01T01:10:39.959Z,99177.81
2023-04-01T01:13:35.032Z,99168.13
2023-04-01T01:16:08.206Z,99173.53
2023-04-01T01:18:44.849Z,99181.88
2023-04-01T01:21:35.743Z,99185.69
2023-04-01T01:24:05.010Z,99177.84
2023-04-01T01:26:41.181Z,99180.56
2023-04-01T01:29:42.615Z,99180.84
2023-04-01T01:32:27.879Z,99177.63
2023-04-01T01:35:09.373Z,99175.19
2023-04-01T01:37:38.166Z,99176.25
2023-04-01T01:40:08.525Z,99183.81
2023-04-01T01:42:39.261Z,99179.50
2023-04-01T01:45:08.345Z,99177.91
2023-04-01T01:47:36.722Z,99188.44
2023-04-01T01:50:05.828Z,99187.09
2023-04-01T01:52:32.267Z,99190.34
2023-04-01T01:54:59.404Z,99184.41
2023-04-01T01:57:30.076Z,99187.13
2023-04-01T02:00:09.043Z,99189.28
2023-04-01T02:02:35.642Z,99187.66
2023-04-01T02:05:03.800Z,99184.44
2023-04-01T02:07:34.752Z,99192.81
2023-04-01T02:10:01.420Z,99189.06
2023-04-01T02:12:29.921Z,99203.88
2023-04-01T02:15:06.633Z,99206.03
2023-04-01T02:17:34.931Z,99205.22
2023-04-01T02:20:06.944Z,99199.31
2023-04-01T02:22:39.130Z,99200.38
2023-04-01T02:25:13.419Z,99197.69
2023-04-01T02:27:41.195Z,99203.88
2023-04-01T02:30:08.173Z,99199.84
2023-04-01T02:32:38.743Z,99210.41
2023-04-01T02:35:08.392Z,99205.25
2023-04-01T02:37:36.803Z,99217.41
2023-04-01T02:40:08.260Z,99208.50
2023-04-01T02:42:35.550Z,99212.28
2023-04-01T02:45:02.554Z,99206.91
2023-04-01T02:47:28.954Z,99204.44
2023-04-01T02:49:58.823Z,99215.25
2023-04-01T02:52:26.434Z,99214.44
2023-04-01T02:54:53.551Z,99213.66
2023-04-01T02:57:19.950Z,99218.50
2023-04-01T02:59:46.572Z,99219.84
2023-04-01T03:02:13.157Z,99218.75
2023-04-01T03:04:39.603Z,99217.94
2023-04-01T03:07:06.377Z,99224.44
2023-04-01T03:09:32.776Z,99226.31
2023-04-01T03:11:59.182Z,99229.03
2023-04-01T03:14:25.607Z,99228.22
2023-04-01T03:16:52.059Z,99233.59
2023-04-01T03:19:18.402Z,99228.22
2023-04-01T03:21:44.930Z,99230.63
2023-04-01T03:24:11.534Z,99235.25
2023-04-01T03:26:37.921Z,99236.84
2023-04-01T03:29:04.310Z,99243.06
2023-04-01T03:31:31.121Z,99249.25
2023-04-01T03:33:57.568Z,99253.03
2023-04-01T03:36:24.079Z,99253.84
2023-04-01T03:38:50.830Z,99255.47
2023-04-01T03:41:18.491Z,99260.59
2023-04-01T03:43:45.737Z,99250.59
2023-04-01T03:46:12.301Z,99254.13
2023-04-01T03:48:38.689Z,99275.44
2023-04-01T03:51:09.018Z,99272.72
2023-04-01T03:53:35.399Z,99274.09
2023-04-01T03:56:06.357Z,99274.09
2023-04-01T03:58:32.806Z,99275.72
2023-04-01T04:00:59.157Z,99284.34
2023-04-01T04:03:25.625Z,99278.94
2023-04-01T04:05:52.152Z,99282.47
2023-04-01T04:08:18.778Z,99279.47
2023-04-01T04:10:45.674Z,99289.72
2023-04-01T04:13:12.108Z,99295.13
2023-04-01T04:15:39.385Z,99291.63
2023-04-01T04:18:06.045Z,99303.22
2023-04-01T04:20:32.539Z,99301.88
2023-04-01T04:22:58.958Z,99302.69
2023-04-01T04:25:25.386Z,99309.72
2023-04-01T04:27:51.769Z,99312.13
2023-04-01T04:30:18.247Z,99314.59
2023-04-01T04:32:44.733Z,99313.47
2023-04-01T04:35:11.395Z,99323.22
2023-04-01T04:37:37.729Z,99320.22
2023-04-01T04:40:04.422Z,99323.50
2023-04-01T04:42:30.818Z,99331.31
2023-04-01T04:44:57.214Z,99337.50
2023-04-01T04:47:23.923Z,99340.75
2023-04-01T04:49:50.580Z,99348.59
2023-04-01T04:52:16.971Z,99345.59
2023-04-01T04:54:43.372Z,99347.25
2023-04-01T04:57:09.817Z,99358.84
2023-04-01T04:59:36.255Z,99360.47
2023-04-01T05:02:02.790Z,99361.53
2023-04-01T05:04:29.228Z,99373.94
2023-04-01T05:06:55.936Z,99371.00
2023-04-01T05:09:22.386Z,99375.03
2023-04-01T05:11:48.873Z,99381.25
2023-04-01T05:14:16.885Z,99379.09
2023-04-01T05:16:43.449Z,99380.97
2023-04-01T05:19:10.135Z,99388.53
2023-04-01T05:21:36.615Z,99395.03
2023-04-01T05:24:03.145Z,99395.03
2023-04-01T05:26:29.488Z,99399.34
2023-04-01T05:28:55.882Z,99409.06
2023-04-01T05:31:22.409Z,99410.72
2023-04-01T05:33:48.910Z,99403.94
2023-04-01T05:36:17.180Z,99416.13
2023-04-01T05:38:44.703Z,99422.59
2023-04-01T05:41:11.150Z,99420.13
2023-04-01T05:43:38.860Z,99429.63
2023-04-01T05:46:05.501Z,99434.22
2023-04-01T05:48:33.960Z,99442.03
2023-04-01T05:51:00.393Z,99441.78
2023-04-01T05:53:26.847Z,99449.06
2023-04-01T05:55:53.187Z,99443.38
2023-04-01T05:58:19.595Z,99446.88
2023-04-01T06:00:46.843Z,99446.63
2023-04-01T06:03:14.338Z,99452.56
2023-04-01T06:05:43.376Z,99457.16
2023-04-01T06:08:17.591Z,99460.69
2023-04-01T06:10:51.885Z,99464.97
2023-04-01T06:13:36.405Z,99465.78
2023-04-01T06:16:12.613Z,99469.06
2023-04-01T06:18:50.305Z,99473.66
2023-04-01T06:21:29.533Z,99475.25
2023-04-01T06:24:20.013Z,99484.16
2023-04-01T06:27:04.107Z,99479.88
2023-04-01T06:29:44.799Z,99492.56
2023-04-01T06:32:43.570Z,99490.38
2023-04-01T06:35:23.067Z,99503.91
2023-04-01T06:38:06.022Z,99489.31
2023-04-01T06:40:41.394Z,99508.75
2023-04-01T06:43:29.215Z,99506.88
2023-04-01T06:45:59.233Z,99520.38
2023-04-01T06:48:54.705Z,99524.72
2023-04-01T06:51:58.867Z,99530.66
2023-04-01T06:54:42.081Z,99537.97
2023-04-01T06:57:20.530Z,99538.22
2023-04-01T06:59:48.912Z,99540.91
2023-04-01T07:02:26.640Z,99543.91
2023-04-01T07:04:56.753Z,99547.69
2023-04-01T07:07:36.047Z,99552.31
2023-04-01T07:10:10.167Z,99556.06
2023-04-01T07:12:50.946Z,99563.38
2023-04-01T07:15:23.162Z,99560.94
2023-04-01T07:17:56.527Z,99568.78
2023-04-01T07:20:31.818Z,99571.22
2023-04-01T07:23:05.267Z,99580.41
2023-04-01T07:25:36.646Z,99581.22
2023-04-01T07:28:14.616Z,99584.75
2023-04-01T07:31:12.529Z,99591.22
2023-04-01T07:34:06.122Z,99598.28
2023-04-01T07:36:43.095Z,99602.31
2023-04-01T07:39:21.548Z,99604.22
2023-04-01T07:41:47.836Z,99605.28
2023-04-01T07:44:51.478Z,99612.84
2023-04-01T07:47:34.226Z,99621.25
2023-04-01T07:50:14.408Z,99623.66
2023-04-01T07:52:49.516Z,99628.00
2023-04-01T07:55:37.796Z,99628.00
2023-04-01T07:58:04.121Z,99631.53
2023-04-01T08:00:55.135Z,99647.47
2023-04-01T08:03:32.214Z,99641.53
2023-04-01T08:06:10.710Z,99654.53
2023-04-01T08:09:08.527Z,99653.41
2023-04-01T08:11:55.777Z,99660.50
2023-04-01T08:14:24.839Z,99659.69
2023-04-01T08:17:06.213Z,99659.94
2023-04-01T08:19:57.681Z,99676.75
2023-04-01T08:22:36.229Z,99675.13
2023-04-01T08:25:08.702Z,99679.44
2023-04-01T08:27:42.584Z,99682.66
2023-04-01T08:30:26.832Z,99685.38
2023-04-01T08:32:56.146Z,99693.22
2023-04-01T08:35:38.878Z,99697.81
2023-04-01T08:38:17.411Z,99701.88
2023-04-01T08:40:59.047Z,99706.22
2023-04-01T08:44:03.033Z,99706.47
2023-04-01T08:46:56.808Z,99711.34
2023-04-01T08:49:37.970Z,99718.69
2023-04-01T08:52:23.211Z,99725.72
2023-04-01T08:55:09.798Z,99726.53
2023-04-01T08:58:02.679Z,99727.59
2023-04-01T09:00:35.672Z,99735.72
2023-04-01T09:03:26.811Z,99737.34
2023-04-01T09:06:31.056Z,99747.13
2023-04-01T09:09:26.556Z,99745.47
2023-04-01T09:11:55.765Z,99748.44
2023-04-01T09:14:25.369Z,99754.16
2023-04-01T09:17:19.648Z,99760.38
2023-04-01T09:20:11.075Z,99757.94
2023-04-01T09:22:43.444Z,99764.44
2023-04-01T09:25:39.578Z,99764.97
2023-04-01T09:28:18.717Z,99763.84
2023-04-01T09:30:55.766Z,99766.34
2023-04-01T09:33:50.609Z,99779.59
2023-04-01T09:36:45.635Z,99774.69
2023-04-01T09:39:37.253Z,99775.72
2023-04-01T09:42:31.349Z,99778.94
2023-04-01T09:45:30.244Z,99788.94
2023-04-01T09:48:52.475Z,99792.91
2023-04-01T09:51:50.889Z,99790.44
2023-04-01T09:54:27.246Z,99795.34
2023-04-01T09:57:24.452Z,99796.38
2023-04-01T10:00:49.396Z,99802.19
2023-04-01T10:03:52.748Z,99794.53
2023-04-01T10:06:49.270Z,99809.72
2023-04-01T10:09:33.093Z,99803.56
2023-04-01T10:12:02.970Z,99813.47
2023-04-01T10:14:42.553Z,99809.06
2023-04-01T10:17:35.254Z,99813.69
2023-04-01T10:20:19.932Z,99814.16
2023-04-01T10:23:05.926Z,99818.59
2023-04-01T10:26:02.793Z,99826.47
2023-04-01T10:28:36.870Z,99826.94
2023-04-01T10:31:28.007Z,99824.50
2023-04-01T10:34:25.205Z,99828.94
2023-04-01T10:37:36.818Z,99829.63
2023-04-01T10:40:40.267Z,99843.03
2023-04-01T10:43:21.917Z,99843.31
2023-04-01T10:46:17.067Z,99843.28
2023-04-01T10:48:57.913Z,99841.00
2023-04-01T10:52:01.954Z,99843.44
2023-04-01T10:54:47.081Z,99845.94
2023-04-01T10:57:51.119Z,99847.16
2023-04-01T11:00:55.531Z,99853.34
2023-04-01T11:03:52.282Z,99863.84
2023-04-01T11:07:01.039Z,99855.13
2023-04-01T11:10:09.017Z,99864.38
2023-04-01T11:12:37.989Z,99872.59
2023-04-01T11:15:41.052Z,99871.03
2023-04-01T11:18:41.796Z,99874.84
2023-04-01T11:21:37.468Z,99877.56
2023-04-01T11:24:10.012Z,99883.53
2023-04-01T11:27:10.126Z,99883.53
2023-04-01T11:29:53.090Z,99892.22
2023-04-01T11:32:46.798Z,99898.16
2023-04-01T11:35:29.316Z,99900.31
2023-04-01T11:38:27.991Z,99911.69
2023-04-01T11:41:28.580Z,99915.53
2023-04-01T11:44:17.936Z,99910.91
2023-04-01T11:47:22.195Z,99921.81
2023-04-01T11:50:23.563Z,99920.44
2023-04-01T11:53:08.148Z,99925.59
2023-04-01T11:56:02.406Z,99930.22
2023-04-01T11:58:43.956Z,99928.31
2023-04-01T12:01:16.274Z,99941.03
2023-04-01T12:04:20.347Z,99939.41
2023-04-01T12:07:21.630Z,99945.63
2023-04-01T12:09:51.347Z,99947.25
2023-04-01T12:12:21.569Z,99945.31
2023-04-01T12:15:19.010Z,99952.06
2023-04-01T12:18:16.344Z,99964.03
2023-04-01T12:20:58.474Z,99961.06
2023-04-01T12:23:44.256Z,99967.63
2023-04-01T12:26:36.628Z,99967.63
2023-04-01T12:29:37.484Z,99971.94
2023-04-01T12:32:38.034Z,99979.53
2023-04-01T12:35:16.636Z,99975.72
2023-04-01T12:37:49.634Z,99986.88
2023-04-01T12:40:25.574Z,99986.00
2023-04-01T12:43:12.244Z,99991.69
2023-04-01T12:45:56.431Z,99988.66
2023-04-01T12:48:46.550Z,99988.06
2023-04-01T12:51:34.170Z,99992.63
2023-04-01T12:54:11.708Z,99995.78
2023-04-01T12:57:03.343Z,99994.94
2023-04-01T12:59:52.463Z,99999.03
2023-04-01T13:02:39.608Z,100003.34
2023-04-01T13:05:20.668Z,100003.38
2023-04-01T13:08:05.451Z,100010.19
2023-04-01T13:10:53.502Z,100011.09
2023-04-01T13:13:47.882Z,100021.78
2023-04-01T13:16:37.619Z,100031.59
2023-04-01T13:19:15.008Z,100025.09
2023-04-01T13:22:00.246Z,100036.78
2023-04-01T13:24:59.744Z,100047.91
2023-04-01T13:27:41.593Z,100048.47
2023-04-01T13:30:31.659Z,100050.59
2023-04-01T13:33:13.997Z,100057.09
2023-04-01T13:36:17.043Z,100066.31
2023-04-01T13:39:27.716Z,100060.38
2023-04-01T13:42:13.889Z,100060.91
2023-04-01T13:44:52.607Z,100066.88
2023-04-01T13:47:26.094Z,100065.50
2023-04-01T13:50:11.477Z,100069.56
2023-04-01T13:52:58.620Z,100070.09
2023-04-01T13:55:27.894Z,100066.28
2023-04-01T13:58:09.482Z,100073.88
2023-04-01T14:00:57.854Z,100088.50
2023-04-01T14:04:01.970Z,100085.78
2023-04-01T14:07:04.204Z,100091.44
2023-04-01T14:10:01.411Z,100101.69
2023-04-01T14:12:45.664Z,100109.53
2023-04-01T14:16:00.790Z,100111.66
2023-04-01T14:19:04.312Z,100113.84
2023-04-01T14:21:38.635Z,100125.19
2023-04-01T14:24:15.243Z,100131.13
2023-04-01T14:27:03.353Z,100124.88
2023-04-01T14:29:40.958Z,100134.88
2023-04-01T14:32:28.393Z,100135.91
2023-04-01T14:35:23.369Z,100148.91
2023-04-01T14:38:03.857Z,100149.44
2023-04-01T14:40:45.572Z,100161.31
2023-04-01T14:43:24.778Z,100159.13
2023-04-01T14:46:20.505Z,100155.34
2023-04-01T14:49:22.158Z,100177.03
2023-04-01T14:51:49.385Z,100178.66
2023-04-01T14:54:25.250Z,100185.69
2023-04-01T14:57:11.086Z,100191.38
2023-04-01T14:59:41.824Z,100190.00
2023-04-01T15:02:27.113Z,100196.50
2023-04-01T15:05:00.787Z,100199.25
2023-04-01T15:07:52.116Z,100207.34
2023-04-01T15:10:36.875Z,100209.81
2023-04-01T15:13:38.011Z,100220.41
2023-04-01T15:16:28.522Z,100228.03
2023-04-01T15:19:01.052Z,100236.47
2023-04-01T15:21:54.742Z,100232.69
2023-04-01T15:24:46.926Z,100237.28
2023-04-01T15:27:29.865Z,100252.47
2023-04-01T15:29:58.771Z,100256.25
2023-04-01T15:32:28.213Z,100251.09
2023-04-01T15:35:04.367Z,100252.38
2023-04-01T15:37:56.304Z,100260.69
2023-04-01T15:40:43.337Z,100270.72
2023-04-01T15:43:12.736Z,100278.03
2023-04-01T15:45:53.560Z,100290.22
2023-04-01T15:48:36.324Z,100287.19
2023-04-01T15:51:13.729Z,100293.59
2023-04-01T15:54:16.218Z,100297.28
2023-04-01T15:57:01.275Z,100299.13
2023-04-01T16:00:07.221Z,100311.25
2023-04-01T16:02:47.965Z,100312.50
2023-04-01T16:05:57.331Z,100324.63
2023-04-01T16:08:27.021Z,100321.09
2023-04-01T16:11:07.255Z,100331.84
2023-04-01T16:13:47.369Z,100337.75
2023-04-01T16:16:16.713Z,100344.25
2023-04-01T16:18:51.775Z,100356.09
2023-04-01T16:21:38.268Z,100351.41
2023-04-01T16:24:25.757Z,100357.84
2023-04-01T16:27:13.300Z,100374.81
2023-04-01T16:29:40.384Z,100372.59
2023-04-01T16:32:22.576Z,100380.44
2023-04-01T16:35:06.760Z,100390.34
2023-04-01T16:38:14.741Z,100389.19
2023-04-01T16:40:53.222Z,100399.69
2023-04-01T16:43:27.961Z,100401.00
2023-04-01T16:46:20.452Z,100407.25
2023-04-01T16:49:11.959Z,100422.00
2023-04-01T16:51:48.126Z,100421.66
2023-04-01T16:54:31.579Z,100437.56
2023-04-01T16:57:09.920Z,100432.63
2023-04-01T16:59:41.666Z,100440.66
2023-04-01T17:02:08.019Z,100446.81
2023-04-01T17:04:44.383Z,100451.91
2023-04-01T17:07:28.950Z,100467.06
2023-04-01T17:10:26.382Z,100466.72
2023-04-01T17:13:07.209Z,100470.47
2023-04-01T17:16:06.019Z,100478.25
2023-04-01T17:19:08.787Z,100484.72
2023-04-01T17:21:44.440Z,100497.63
2023-04-01T17:24:28.484Z,100507.66
2023-04-01T17:27:28.986Z,100504.13
2023-04-01T17:30:01.393Z,100510.00
2023-04-01T17:33:01.010Z,100521.84
2023-04-01T17:35:42.394Z,100528.34
2023-04-01T17:38:15.062Z,100533.16
2023-04-01T17:40:57.169Z,100536.09
2023-04-01T17:43:40.526Z,100543.63
2023-04-01T17:46:32.920Z,100556.22
2023-04-01T17:49:39.632Z,100555.06
2023-04-01T17:52:20.144Z,100569.59
2023-04-01T17:55:00.982Z,100574.22
2023-04-01T17:57:55.632Z,100578.44
2023-04-01T18:00:54.016Z,100581.03
2023-04-01T18:03:43.903Z,100588.91
2023-04-01T18:06:48.527Z,100595.94
2023-04-01T18:09:52.039Z,100612.63
2023-04-01T18:12:30.437Z,100618.03
2023-04-01T18:15:22.387Z,100619.31
2023-04-01T18:18:27.630Z,100628.16
2023-04-01T18:21:42.174Z,100646.69
2023-04-01T18:24:30.520Z,100649.03
2023-04-01T18:27:05.260Z,100657.38
2023-04-01T18:29:48.230Z,100664.06
2023-04-01T18:32:24.327Z,100672.41
2023-04-01T18:34:59.969Z,100675.69
2023-04-01T18:37:32.451Z,100681.53
2023-04-01T18:40:12.796Z,100684.50
2023-04-01T18:42:51.577Z,100692.59
2023-04-01T18:45:34.887Z,100697.41
2023-04-01T18:48:38.617Z,100700.78
2023-04-01T18:51:17.582Z,100709.13
2023-04-01T18:53:56.226Z,100722.84
2023-04-01T18:56:41.385Z,100728.50
2023-04-01T18:59:20.142Z,100740.34
2023-04-01T19:02:14.607Z,100741.06
2023-04-01T19:04:47.556Z,100748.69
2023-04-01T19:07:38.361Z,100757.00
2023-04-01T19:10:49.349Z,100758.06
2023-04-01T19:13:53.715Z,100763.47
2023-04-01T19:16:20.255Z,100773.66
2023-04-01T19:18:56.333Z,100774.09
2023-04-01T19:21:38.569Z,100786.44
2023-04-01T19:24:26.837Z,100786.06
2023-04-01T19:27:17.933Z,100796.28
2023-04-01T19:29:59.900Z,100806.81
2023-04-01T19:33:02.147Z,100817.03
2023-04-01T19:35:47.782Z,100820.19
2023-04-01T19:38:17.922Z,100834.13
2023-04-01T19:41:14.156Z,100826.50
2023-04-01T19:43:51.317Z,100839.59
2023-04-01T19:46:34.176Z,100842.75
2023-04-01T19:49:13.097Z,100843.81
2023-04-01T19:52:01.316Z,100849.44
2023-04-01T19:54:50.606Z,100856.91
2023-04-01T19:57:39.239Z,100870.72
2023-04-01T20:00:17.568Z,100876.41
2023-04-01T20:03:22.522Z,100885.53
2023-04-01T20:06:02.545Z,100894.31
2023-04-01T20:08:53.937Z,100890.66
2023-04-01T20:11:41.396Z,100900.63
2023-04-01T20:14:18.398Z,100913.06
2023-04-01T20:16:51.986Z,100905.41
2023-04-01T20:19:46.009Z,100919.34
2023-04-01T20:22:29.434Z,100920.63
2023-04-01T20:25:02.621Z,100927.50
2023-04-01T20:27:36.689Z,100938.28
2023-04-01T20:30:18.230Z,100941.41
2023-04-01T20:33:08.364Z,100944.78
2023-04-01T20:35:45.034Z,100958.47
2023-04-01T20:38:48.722Z,100963.84
2023-04-01T20:41:24.339Z,100969.47
2023-04-01T20:44:05.977Z,100970.75
2023-04-01T20:46:47.057Z,100978.25
2023-04-01T20:49:29.548Z,100983.63
2023-04-01T20:52:19.498Z,100985.50
2023-04-01T20:55:06.533Z,100998.38
2023-04-01T20:57:45.149Z,101009.94
2023-04-01T21:00:23.228Z,101001.06
2023-04-01T21:03:20.659Z,101016.63
2023-04-01T21:05:59.159Z,101016.25
2023-04-01T21:08:37.841Z,101019.38
2023-04-01T21:11:29.312Z,101030.34
2023-04-01T21:14:27.593Z,101034.16
2023-04-01T21:17:20.881Z,101041.00
2023-04-01T21:20:10.528Z,101052.06
2023-04-01T21:23:04.886Z,101056.25
2023-04-01T21:25:49.438Z,101062.66
2023-04-01T21:28:45.214Z,101075.72
2023-04-01T21:31:33.131Z,101082.38
2023-04-01T21:33:59.450Z,101089.84
2023-04-01T21:36:58.384Z,101091.72
2023-04-01T21:39:55.242Z,101094.44
2023-04-01T21:42:27.388Z,101105.63
2023-04-01T21:45:02.831Z,101105.63
2023-04-01T21:48:06.949Z,101118.91
2023-04-01T21:50:46.269Z,101124.28
2023-04-01T21:53:37.293Z,101132.19
2023-04-01T21:56:26.118Z,101132.41
2023-04-01T21:59:14.569Z,101131.78
2023-04-01T22:02:18.244Z,101142.16
2023-04-01T22:05:08.224Z,101140.50
2023-04-01T22:07:47.547Z,101148.34
2023-04-01T22:10:36.062Z,101154.38
2023-04-01T22:13:20.125Z,101162.47
2023-04-01T22:15:52.261Z,101163.50
2023-04-01T22:18:34.617Z,101171.97
2023-04-01T22:21:30.227Z,101177.38
2023-04-01T22:24:15.195Z,101181.53
2023-04-01T22:26:52.388Z,101187.34
2023-04-01T22:29:29.796Z,101192.53
2023-04-01T22:32:18.075Z,101200.59
2023-04-01T22:35:23.426Z,101198.94
2023-04-01T22:38:06.128Z,101207.41
2023-04-01T22:40:40.693Z,101208.44
2023-04-01T22:43:08.856Z,101216.75
2023-04-01T22:45:54.927Z,101221.72
2023-04-01T22:48:42.015Z,101226.91
2023-04-01T22:51:23.395Z,101234.56
2023-04-01T22:54:14.168Z,101237.66
2023-04-01T22:56:46.986Z,101239.50
2023-04-01T22:59:26.317Z,101247.38
2023-04-01T23:01:59.802Z,101249.25
2023-04-01T23:04:32.548Z,101260.00
2023-04-01T23:07:04.577Z,101254.00
2023-04-01T23:09:34.649Z,101257.09
2023-04-01T23:12:12.509Z,101267.03
2023-04-01T23:14:51.995Z,101273.47
2023-04-01T23:17:36.165Z,101272.81
2023-04-01T23:20:21.598Z,101276.97
2023-04-01T23:23:12.937Z,101289.78
2023-04-01T23:26:27.318Z,101293.50
2023-04-01T23:29:00.352Z,101293.31
2023-04-01T23:31:37.804Z,101307.38
2023-04-01T23:34:12.930Z,101306.34
2023-04-01T23:36:48.700Z,101312.72
2023-04-01T23:39:24.085Z,101316.47
2023-04-01T23:41:54.521Z,101321.84
2023-04-01T23:44:21.671Z,101323.88
2023-04-01T23:46:49.943Z,101319.34
2023-04-01T23:49:24.421Z,101323.06
2023-04-01T23:51:55.525Z,101328.44
2023-04-01T23:54:32.794Z,101331.34
2023-04-01T23:56:59.991Z,101347.47
2023-04-01T23:59:33.078Z,101342.31
